罗盘
风向 的 风向 的 风向 到 风向 300° Deelen Air Base 8/26
风: 12 kt, 4 beaufort

9 kt

7 kt
改变
0 2.000 4.000 6.000 8.000 10.000
SCT 4.900 ft
BKN 5.400 ft
METAR EHDL 271725Z AUTO 30012KT 230V350 9999 SCT049 BKN054 14/05 Q1022 BLU

METAR Deelen Air Base

Deelen Air Base是Arnhem,荷兰中的中型机场。 该机场有2条跑道: 8/26 和 2/20.

这份报告是针对2022年5月27日 7:25 下午, 当地时间在Deelen Air Base进行的。

机场观察

风向为300°,速度为12 kt。 风向在230°和350°之间变化。

可见度为6¼ mi 或者更多。

有疏云,零星散落的云朵在4.900 ft的高度 和 碎云在5.400 ft的高度。 破损或更高的上限为5.400 ft。

温度和风寒是57 °F。 露点为41 °F,相对湿度为55%。 海平面上的气压为30,18 inHg (QNH)。

白天

今天,太阳从5:26 上午升起,在9:40 下午降落。 这适用于Deelen Air Base,世界夏令时可能有所不同。 当地时间与世界标准时间之间的时差为+2 小时。 夏令时目前正在进行中。

公司介绍

我们没有关于这个机场的公司信息。

体会

到Vliegles.nl去找飞行课程,跳伞和其他飞行体验。 浏览页面,了解Deelen Air Base附近所有可用的活动。 你也可以使用搜索功能来寻找你所在地附近的特定飞行课程、跳伞或其他飞行体验。

您会帮助我们保持Metar-Taf.com正常运行吗?
您的贡献有助于网站的进一步开发并支付费用。

没有更多广告

您是捐款5美元还是更多?然后,我们将永远不会再向您展示广告,这是我们永恒的感谢!
捐赠前先登录

跑道

Id 标题 侧风 逆风
8/26 080°-260° 7 kt 9 kt
2/20 018°-198° 11 kt 2 kt

逆风成分最大的方向会被突出显示,并用于横风计算。 这并不一定意味着这个方向在使用。

乌云

4.900 ft SCT 疏云,零星散落的云朵
5.400 ft BKN 碎云

温度 & 天气

温度 57 °F
露点 41 °F
相对湿度 55%
Kp-index 3  

公司介绍

新增公司

下载我们的应用程序

在您的手机和平板电脑上轻松访问所有航空天气。
有许多网站上没有的功能,如离线支持和个人机场列表。

Studio Eveline

Benalmádena
España

我们和第三方通过cookies跟踪您在我们网站上的上网行为。如果您继续,我们认为您同意我们的cookie政策。 了解更多